sensor_id;sensor_type;location;lat;lon;timestamp;P1;durP1;ratioP1;P2;durP2;ratioP2
67798;SDS011;54596;43.216;27.904;2023-06-19T00:00:07;20.70;;;11.23;;
67798;SDS011;54596;43.216;27.904;2023-06-19T00:02:38;21.48;;;10.82;;
67798;SDS011;54596;43.216;27.904;2023-06-19T00:05:05;17.80;;;9.95;;
67798;SDS011;54596;43.216;27.904;2023-06-19T00:07:31;16.35;;;9.45;;
67798;SDS011;54596;43.216;27.904;2023-06-19T00:09:57;17.52;;;8.73;;
67798;SDS011;54596;43.216;27.904;2023-06-19T00:12:24;17.75;;;9.10;;
67798;SDS011;54596;43.216;27.904;2023-06-19T00:14:50;17.92;;;8.27;;
67798;SDS011;54596;43.216;27.904;2023-06-19T00:17:16;16.23;;;8.18;;
67798;SDS011;54596;43.216;27.904;2023-06-19T00:19:42;17.65;;;8.60;;
67798;SDS011;54596;43.216;27.904;2023-06-19T00:22:08;16.45;;;8.13;;
67798;SDS011;54596;43.216;27.904;2023-06-19T00:24:33;18.05;;;8.35;;
67798;SDS011;54596;43.216;27.904;2023-06-19T00:26:59;18.85;;;7.95;;
67798;SDS011;54596;43.216;27.904;2023-06-19T00:29:31;16.17;;;7.28;;
67798;SDS011;54596;43.216;27.904;2023-06-19T00:31:58;12.80;;;7.03;;
67798;SDS011;54596;43.216;27.904;2023-06-19T00:34:24;15.82;;;6.47;;
67798;SDS011;54596;43.216;27.904;2023-06-19T00:36:50;14.07;;;6.28;;
67798;SDS011;54596;43.216;27.904;2023-06-19T00:39:16;12.93;;;5.80;;
67798;SDS011;54596;43.216;27.904;2023-06-19T00:41:42;15.00;;;7.20;;
67798;SDS011;54596;43.216;27.904;2023-06-19T00:44:09;16.42;;;6.72;;
67798;SDS011;54596;43.216;27.904;2023-06-19T00:46:37;15.45;;;6.72;;
67798;SDS011;54596;43.216;27.904;2023-06-19T00:49:05;13.43;;;6.13;;
67798;SDS011;54596;43.216;27.904;2023-06-19T00:51:31;12.00;;;5.40;;
67798;SDS011;54596;43.216;27.904;2023-06-19T00:53:57;14.02;;;5.60;;
67798;SDS011;54596;43.216;27.904;2023-06-19T00:56:23;11.52;;;5.53;;
67798;SDS011;54596;43.216;27.904;2023-06-19T00:58:48;11.48;;;5.28;;
67798;SDS011;54596;43.216;27.904;2023-06-19T01:01:14;10.48;;;5.00;;
67798;SDS011;54596;43.216;27.904;2023-06-19T01:03:40;11.70;;;5.10;;
67798;SDS011;54596;43.216;27.904;2023-06-19T01:06:10;13.02;;;4.97;;
67798;SDS011;54596;43.216;27.904;2023-06-19T01:11:12;10.98;;;4.93;;
67798;SDS011;54596;43.216;27.904;2023-06-19T01:13:49;12.05;;;5.40;;
67798;SDS011;54596;43.216;27.904;2023-06-19T01:16:23;10.95;;;4.60;;
67798;SDS011;54596;43.216;27.904;2023-06-19T01:18:49;9.95;;;4.55;;
67798;SDS011;54596;43.216;27.904;2023-06-19T01:21:16;12.35;;;4.18;;
67798;SDS011;54596;43.216;27.904;2023-06-19T01:23:43;9.25;;;4.28;;
67798;SDS011;54596;43.216;27.904;2023-06-19T01:26:09;12.68;;;4.57;;
67798;SDS011;54596;43.216;27.904;2023-06-19T01:28:35;13.50;;;4.97;;
67798;SDS011;54596;43.216;27.904;2023-06-19T01:31:06;13.27;;;5.22;;
67798;SDS011;54596;43.216;27.904;2023-06-19T01:33:39;12.82;;;4.28;;
67798;SDS011;54596;43.216;27.904;2023-06-19T01:36:07;12.20;;;4.72;;
67798;SDS011;54596;43.216;27.904;2023-06-19T01:38:34;14.43;;;5.15;;
67798;SDS011;54596;43.216;27.904;2023-06-19T01:41:00;12.10;;;4.25;;
67798;SDS011;54596;43.216;27.904;2023-06-19T01:43:27;11.40;;;4.80;;
67798;SDS011;54596;43.216;27.904;2023-06-19T01:45:55;12.20;;;4.78;;
67798;SDS011;54596;43.216;27.904;2023-06-19T01:48:21;12.35;;;4.95;;
67798;SDS011;54596;43.216;27.904;2023-06-19T01:50:49;12.38;;;4.60;;
67798;SDS011;54596;43.216;27.904;2023-06-19T01:53:15;12.48;;;4.90;;
67798;SDS011;54596;43.216;27.904;2023-06-19T01:55:41;12.18;;;4.82;;
67798;SDS011;54596;43.216;27.904;2023-06-19T01:58:06;12.30;;;4.70;;
67798;SDS011;54596;43.216;27.904;2023-06-19T02:00:32;17.83;;;5.50;;
67798;SDS011;54596;43.216;27.904;2023-06-19T02:03:00;14.65;;;4.82;;
67798;SDS011;54596;43.216;27.904;2023-06-19T02:05:26;14.98;;;5.10;;
67798;SDS011;54596;43.216;27.904;2023-06-19T02:07:51;12.80;;;5.20;;
67798;SDS011;54596;43.216;27.904;2023-06-19T02:10:17;13.15;;;5.28;;
67798;SDS011;54596;43.216;27.904;2023-06-19T02:12:42;11.07;;;5.68;;
67798;SDS011;54596;43.216;27.904;2023-06-19T02:15:08;11.75;;;5.55;;
67798;SDS011;54596;43.216;27.904;2023-06-19T02:17:34;13.80;;;5.88;;
67798;SDS011;54596;43.216;27.904;2023-06-19T02:19:59;17.15;;;6.75;;
67798;SDS011;54596;43.216;27.904;2023-06-19T02:22:25;14.52;;;6.63;;
67798;SDS011;54596;43.216;27.904;2023-06-19T02:24:51;10.77;;;6.40;;
67798;SDS011;54596;43.216;27.904;2023-06-19T02:27:16;13.45;;;6.97;;
67798;SDS011;54596;43.216;27.904;2023-06-19T02:29:42;14.90;;;9.10;;
67798;SDS011;54596;43.216;27.904;2023-06-19T02:32:07;15.63;;;6.80;;
67798;SDS011;54596;43.216;27.904;2023-06-19T02:34:33;15.15;;;7.85;;
67798;SDS011;54596;43.216;27.904;2023-06-19T02:36:58;12.02;;;6.60;;
67798;SDS011;54596;43.216;27.904;2023-06-19T02:39:24;11.95;;;6.35;;
67798;SDS011;54596;43.216;27.904;2023-06-19T02:41:49;11.27;;;5.82;;
67798;SDS011;54596;43.216;27.904;2023-06-19T02:44:15;16.15;;;7.10;;
67798;SDS011;54596;43.216;27.904;2023-06-19T02:46:40;13.55;;;7.80;;
67798;SDS011;54596;43.216;27.904;2023-06-19T02:49:06;13.25;;;6.93;;
67798;SDS011;54596;43.216;27.904;2023-06-19T02:51:31;17.98;;;7.72;;
67798;SDS011;54596;43.216;27.904;2023-06-19T02:53:57;13.07;;;6.43;;
67798;SDS011;54596;43.216;27.904;2023-06-19T02:56:25;17.45;;;7.65;;
67798;SDS011;54596;43.216;27.904;2023-06-19T02:58:51;13.80;;;6.72;;
67798;SDS011;54596;43.216;27.904;2023-06-19T03:01:17;18.38;;;6.75;;
67798;SDS011;54596;43.216;27.904;2023-06-19T03:03:45;13.00;;;6.60;;
67798;SDS011;54596;43.216;27.904;2023-06-19T03:06:11;15.20;;;6.90;;
67798;SDS011;54596;43.216;27.904;2023-06-19T03:08:38;13.15;;;6.43;;
67798;SDS011;54596;43.216;27.904;2023-06-19T03:11:04;14.82;;;7.22;;
67798;SDS011;54596;43.216;27.904;2023-06-19T03:13:35;20.25;;;9.40;;
67798;SDS011;54596;43.216;27.904;2023-06-19T03:16:09;17.45;;;7.93;;
67798;SDS011;54596;43.216;27.904;2023-06-19T03:18:34;19.63;;;8.63;;
67798;SDS011;54596;43.216;27.904;2023-06-19T03:21:00;13.77;;;7.35;;
67798;SDS011;54596;43.216;27.904;2023-06-19T03:23:25;14.95;;;7.28;;
67798;SDS011;54596;43.216;27.904;2023-06-19T03:25:51;16.67;;;8.27;;
67798;SDS011;54596;43.216;27.904;2023-06-19T03:28:16;18.92;;;9.75;;
67798;SDS011;54596;43.216;27.904;2023-06-19T03:30:41;13.82;;;8.70;;
67798;SDS011;54596;43.216;27.904;2023-06-19T03:33:07;16.20;;;9.10;;
67798;SDS011;54596;43.216;27.904;2023-06-19T03:35:32;18.08;;;9.40;;
67798;SDS011;54596;43.216;27.904;2023-06-19T03:37:58;17.10;;;10.90;;
67798;SDS011;54596;43.216;27.904;2023-06-19T03:40:23;15.40;;;9.15;;
67798;SDS011;54596;43.216;27.904;2023-06-19T03:42:49;18.55;;;10.98;;
67798;SDS011;54596;43.216;27.904;2023-06-19T03:45:14;23.70;;;13.40;;
67798;SDS011;54596;43.216;27.904;2023-06-19T03:47:40;18.80;;;10.00;;
67798;SDS011;54596;43.216;27.904;2023-06-19T03:50:05;16.63;;;10.55;;
67798;SDS011;54596;43.216;27.904;2023-06-19T03:52:35;18.85;;;9.90;;
67798;SDS011;54596;43.216;27.904;2023-06-19T03:55:03;17.58;;;9.07;;
67798;SDS011;54596;43.216;27.904;2023-06-19T03:57:29;16.58;;;9.43;;
67798;SDS011;54596;43.216;27.904;2023-06-19T03:59:55;15.45;;;9.32;;
67798;SDS011;54596;43.216;27.904;2023-06-19T04:02:21;18.10;;;9.02;;
67798;SDS011;54596;43.216;27.904;2023-06-19T04:04:47;17.13;;;9.65;;
67798;SDS011;54596;43.216;27.904;2023-06-19T04:07:12;19.95;;;9.98;;
67798;SDS011;54596;43.216;27.904;2023-06-19T04:09:38;19.33;;;10.60;;
67798;SDS011;54596;43.216;27.904;2023-06-19T04:12:04;16.08;;;10.25;;
67798;SDS011;54596;43.216;27.904;2023-06-19T04:14:30;18.30;;;11.15;;
67798;SDS011;54596;43.216;27.904;2023-06-19T04:16:55;19.15;;;10.32;;
67798;SDS011;54596;43.216;27.904;2023-06-19T04:19:21;21.73;;;9.90;;
67798;SDS011;54596;43.216;27.904;2023-06-19T04:21:46;19.92;;;12.73;;
67798;SDS011;54596;43.216;27.904;2023-06-19T04:24:11;17.70;;;9.70;;
67798;SDS011;54596;43.216;27.904;2023-06-19T04:26:37;18.45;;;10.23;;
67798;SDS011;54596;43.216;27.904;2023-06-19T04:29:02;13.65;;;8.70;;
67798;SDS011;54596;43.216;27.904;2023-06-19T04:31:28;16.52;;;9.43;;
67798;SDS011;54596;43.216;27.904;2023-06-19T04:33:55;18.17;;;9.88;;
67798;SDS011;54596;43.216;27.904;2023-06-19T04:36:21;16.65;;;8.20;;
67798;SDS011;54596;43.216;27.904;2023-06-19T04:38:48;15.13;;;8.60;;
67798;SDS011;54596;43.216;27.904;2023-06-19T04:41:16;19.05;;;12.80;;
67798;SDS011;54596;43.216;27.904;2023-06-19T04:43:42;14.73;;;7.78;;
67798;SDS011;54596;43.216;27.904;2023-06-19T04:46:07;21.73;;;13.90;;
67798;SDS011;54596;43.216;27.904;2023-06-19T04:48:33;16.48;;;8.07;;
67798;SDS011;54596;43.216;27.904;2023-06-19T04:51:01;14.93;;;8.73;;
67798;SDS011;54596;43.216;27.904;2023-06-19T04:53:27;17.10;;;7.78;;
67798;SDS011;54596;43.216;27.904;2023-06-19T04:55:53;14.38;;;6.50;;
67798;SDS011;54596;43.216;27.904;2023-06-19T04:58:20;15.65;;;8.82;;
67798;SDS011;54596;43.216;27.904;2023-06-19T05:00:48;16.13;;;7.85;;
67798;SDS011;54596;43.216;27.904;2023-06-19T05:03:17;58.95;;;10.80;;
67798;SDS011;54596;43.216;27.904;2023-06-19T05:05:43;12.23;;;6.00;;
67798;SDS011;54596;43.216;27.904;2023-06-19T05:08:09;19.25;;;5.70;;
67798;SDS011;54596;43.216;27.904;2023-06-19T05:10:34;12.32;;;5.70;;
67798;SDS011;54596;43.216;27.904;2023-06-19T05:13:00;10.77;;;5.07;;
67798;SDS011;54596;43.216;27.904;2023-06-19T05:15:26;11.65;;;5.30;;
67798;SDS011;54596;43.216;27.904;2023-06-19T05:17:53;10.98;;;5.22;;
67798;SDS011;54596;43.216;27.904;2023-06-19T05:20:19;12.00;;;5.07;;
67798;SDS011;54596;43.216;27.904;2023-06-19T05:22:45;13.82;;;6.68;;
67798;SDS011;54596;43.216;27.904;2023-06-19T05:25:11;12.00;;;4.90;;
67798;SDS011;54596;43.216;27.904;2023-06-19T05:27:36;12.18;;;4.90;;
67798;SDS011;54596;43.216;27.904;2023-06-19T05:30:02;10.93;;;5.03;;
67798;SDS011;54596;43.216;27.904;2023-06-19T05:32:29;11.43;;;4.30;;
67798;SDS011;54596;43.216;27.904;2023-06-19T05:34:54;9.85;;;4.10;;
67798;SDS011;54596;43.216;27.904;2023-06-19T05:37:20;11.25;;;3.85;;
67798;SDS011;54596;43.216;27.904;2023-06-19T05:39:47;11.40;;;3.58;;
67798;SDS011;54596;43.216;27.904;2023-06-19T05:42:13;9.75;;;3.88;;
67798;SDS011;54596;43.216;27.904;2023-06-19T05:44:38;19.65;;;8.13;;
67798;SDS011;54596;43.216;27.904;2023-06-19T05:47:05;12.27;;;6.45;;
67798;SDS011;54596;43.216;27.904;2023-06-19T05:49:31;14.32;;;4.30;;
67798;SDS011;54596;43.216;27.904;2023-06-19T05:51:56;10.75;;;3.28;;
67798;SDS011;54596;43.216;27.904;2023-06-19T05:54:24;10.57;;;3.67;;
67798;SDS011;54596;43.216;27.904;2023-06-19T05:56:50;11.27;;;5.10;;
67798;SDS011;54596;43.216;27.904;2023-06-19T05:59:16;10.70;;;3.40;;
67798;SDS011;54596;43.216;27.904;2023-06-19T06:01:42;11.75;;;3.80;;
67798;SDS011;54596;43.216;27.904;2023-06-19T06:04:07;10.82;;;3.00;;
67798;SDS011;54596;43.216;27.904;2023-06-19T06:06:32;14.43;;;3.60;;
67798;SDS011;54596;43.216;27.904;2023-06-19T06:08:58;8.23;;;3.08;;
67798;SDS011;54596;43.216;27.904;2023-06-19T06:11:23;6.75;;;2.78;;
67798;SDS011;54596;43.216;27.904;2023-06-19T06:13:49;17.13;;;4.22;;
67798;SDS011;54596;43.216;27.904;2023-06-19T06:16:14;9.65;;;3.00;;
67798;SDS011;54596;43.216;27.904;2023-06-19T06:18:40;12.15;;;3.20;;
67798;SDS011;54596;43.216;27.904;2023-06-19T06:21:06;13.20;;;3.20;;
67798;SDS011;54596;43.216;27.904;2023-06-19T06:23:31;9.95;;;2.92;;
67798;SDS011;54596;43.216;27.904;2023-06-19T06:25:57;14.88;;;2.90;;
67798;SDS011;54596;43.216;27.904;2023-06-19T06:28:27;10.15;;;3.15;;
67798;SDS011;54596;43.216;27.904;2023-06-19T06:30:52;16.85;;;3.20;;
67798;SDS011;54596;43.216;27.904;2023-06-19T06:33:18;10.43;;;3.17;;
67798;SDS011;54596;43.216;27.904;2023-06-19T06:35:44;6.47;;;2.78;;
67798;SDS011;54596;43.216;27.904;2023-06-19T06:38:09;8.15;;;3.00;;
67798;SDS011;54596;43.216;27.904;2023-06-19T06:40:35;11.25;;;3.15;;
67798;SDS011;54596;43.216;27.904;2023-06-19T06:43:00;11.30;;;3.28;;
67798;SDS011;54596;43.216;27.904;2023-06-19T06:45:26;9.50;;;2.90;;
67798;SDS011;54596;43.216;27.904;2023-06-19T06:47:51;9.77;;;3.08;;
67798;SDS011;54596;43.216;27.904;2023-06-19T06:50:17;8.40;;;3.83;;
67798;SDS011;54596;43.216;27.904;2023-06-19T06:52:42;10.05;;;3.35;;
67798;SDS011;54596;43.216;27.904;2023-06-19T06:55:07;8.40;;;2.60;;
67798;SDS011;54596;43.216;27.904;2023-06-19T06:57:33;9.13;;;3.22;;
67798;SDS011;54596;43.216;27.904;2023-06-19T06:59:59;8.70;;;2.90;;
67798;SDS011;54596;43.216;27.904;2023-06-19T07:02:24;8.10;;;2.58;;
67798;SDS011;54596;43.216;27.904;2023-06-19T07:04:50;11.15;;;2.75;;
67798;SDS011;54596;43.216;27.904;2023-06-19T07:07:16;6.95;;;2.83;;
67798;SDS011;54596;43.216;27.904;2023-06-19T07:09:41;7.25;;;2.90;;
67798;SDS011;54596;43.216;27.904;2023-06-19T07:12:07;8.40;;;3.30;;
67798;SDS011;54596;43.216;27.904;2023-06-19T07:14:33;6.45;;;2.80;;
67798;SDS011;54596;43.216;27.904;2023-06-19T07:16:58;14.13;;;3.08;;
67798;SDS011;54596;43.216;27.904;2023-06-19T07:19:23;8.45;;;2.88;;
67798;SDS011;54596;43.216;27.904;2023-06-19T07:21:52;10.90;;;2.65;;
67798;SDS011;54596;43.216;27.904;2023-06-19T07:24:17;8.73;;;2.80;;
67798;SDS011;54596;43.216;27.904;2023-06-19T07:26:43;9.48;;;2.88;;
67798;SDS011;54596;43.216;27.904;2023-06-19T07:29:11;9.45;;;3.10;;
67798;SDS011;54596;43.216;27.904;2023-06-19T07:31:37;8.27;;;2.83;;
67798;SDS011;54596;43.216;27.904;2023-06-19T07:34:03;8.32;;;2.80;;
67798;SDS011;54596;43.216;27.904;2023-06-19T07:36:29;8.57;;;3.15;;
67798;SDS011;54596;43.216;27.904;2023-06-19T07:38:55;9.70;;;2.95;;
67798;SDS011;54596;43.216;27.904;2023-06-19T07:41:20;7.22;;;2.90;;
67798;SDS011;54596;43.216;27.904;2023-06-19T07:43:46;9.40;;;2.80;;
67798;SDS011;54596;43.216;27.904;2023-06-19T07:46:11;10.18;;;2.78;;
67798;SDS011;54596;43.216;27.904;2023-06-19T07:48:37;9.23;;;3.17;;
67798;SDS011;54596;43.216;27.904;2023-06-19T07:51:02;8.18;;;3.45;;
67798;SDS011;54596;43.216;27.904;2023-06-19T07:53:29;6.50;;;2.65;;
67798;SDS011;54596;43.216;27.904;2023-06-19T07:55:55;8.18;;;2.83;;
67798;SDS011;54596;43.216;27.904;2023-06-19T07:58:20;7.25;;;2.97;;
67798;SDS011;54596;43.216;27.904;2023-06-19T08:00:45;8.57;;;3.05;;
67798;SDS011;54596;43.216;27.904;2023-06-19T08:03:11;12.73;;;3.80;;
67798;SDS011;54596;43.216;27.904;2023-06-19T08:05:37;8.55;;;3.50;;
67798;SDS011;54596;43.216;27.904;2023-06-19T08:08:03;8.65;;;3.30;;
67798;SDS011;54596;43.216;27.904;2023-06-19T08:10:28;7.82;;;3.20;;
67798;SDS011;54596;43.216;27.904;2023-06-19T08:12:54;16.38;;;4.00;;
67798;SDS011;54596;43.216;27.904;2023-06-19T08:15:19;8.00;;;3.35;;
67798;SDS011;54596;43.216;27.904;2023-06-19T08:17:45;13.88;;;3.97;;
67798;SDS011;54596;43.216;27.904;2023-06-19T08:20:11;10.77;;;4.20;;
67798;SDS011;54596;43.216;27.904;2023-06-19T08:22:38;11.73;;;4.47;;
67798;SDS011;54596;43.216;27.904;2023-06-19T08:25:04;10.57;;;3.58;;
67798;SDS011;54596;43.216;27.904;2023-06-19T08:27:30;13.32;;;4.47;;
67798;SDS011;54596;43.216;27.904;2023-06-19T08:29:56;10.57;;;4.18;;
67798;SDS011;54596;43.216;27.904;2023-06-19T08:32:21;10.80;;;4.03;;
67798;SDS011;54596;43.216;27.904;2023-06-19T08:34:47;10.23;;;4.05;;
67798;SDS011;54596;43.216;27.904;2023-06-19T08:37:12;9.15;;;3.55;;
67798;SDS011;54596;43.216;27.904;2023-06-19T08:39:38;11.70;;;3.60;;
67798;SDS011;54596;43.216;27.904;2023-06-19T08:42:07;16.08;;;5.78;;
67798;SDS011;54596;43.216;27.904;2023-06-19T08:44:34;15.13;;;5.80;;
67798;SDS011;54596;43.216;27.904;2023-06-19T08:47:01;11.95;;;3.78;;
67798;SDS011;54596;43.216;27.904;2023-06-19T08:49:33;11.15;;;3.90;;
67798;SDS011;54596;43.216;27.904;2023-06-19T08:52:03;9.48;;;4.15;;
67798;SDS011;54596;43.216;27.904;2023-06-19T08:54:29;10.27;;;3.63;;
67798;SDS011;54596;43.216;27.904;2023-06-19T08:56:54;16.38;;;4.85;;
67798;SDS011;54596;43.216;27.904;2023-06-19T08:59:25;8.35;;;3.70;;
67798;SDS011;54596;43.216;27.904;2023-06-19T09:01:51;13.02;;;3.75;;
67798;SDS011;54596;43.216;27.904;2023-06-19T09:04:19;10.35;;;5.22;;
67798;SDS011;54596;43.216;27.904;2023-06-19T09:06:50;9.32;;;3.90;;
67798;SDS011;54596;43.216;27.904;2023-06-19T09:09:20;9.57;;;4.22;;
67798;SDS011;54596;43.216;27.904;2023-06-19T09:11:59;9.38;;;3.75;;
67798;SDS011;54596;43.216;27.904;2023-06-19T09:14:33;8.77;;;3.70;;
67798;SDS011;54596;43.216;27.904;2023-06-19T09:16:59;10.15;;;3.97;;
67798;SDS011;54596;43.216;27.904;2023-06-19T09:19:25;11.07;;;4.18;;
67798;SDS011;54596;43.216;27.904;2023-06-19T09:21:51;9.30;;;3.75;;
67798;SDS011;54596;43.216;27.904;2023-06-19T09:24:16;11.25;;;3.85;;
67798;SDS011;54596;43.216;27.904;2023-06-19T09:26:42;9.82;;;3.97;;
67798;SDS011;54596;43.216;27.904;2023-06-19T09:29:13;9.13;;;3.70;;
67798;SDS011;54596;43.216;27.904;2023-06-19T09:31:41;8.23;;;3.42;;
67798;SDS011;54596;43.216;27.904;2023-06-19T09:34:07;9.13;;;3.40;;
67798;SDS011;54596;43.216;27.904;2023-06-19T09:36:33;9.25;;;3.78;;
67798;SDS011;54596;43.216;27.904;2023-06-19T09:39:01;8.68;;;3.42;;
67798;SDS011;54596;43.216;27.904;2023-06-19T09:41:29;11.05;;;4.75;;
67798;SDS011;54596;43.216;27.904;2023-06-19T09:43:55;9.98;;;4.05;;
67798;SDS011;54596;43.216;27.904;2023-06-19T09:46:31;9.80;;;4.80;;
67798;SDS011;54596;43.216;27.904;2023-06-19T09:49:00;10.27;;;3.88;;
67798;SDS011;54596;43.216;27.904;2023-06-19T09:51:32;9.15;;;3.83;;
67798;SDS011;54596;43.216;27.904;2023-06-19T09:54:02;7.88;;;3.50;;
67798;SDS011;54596;43.216;27.904;2023-06-19T09:56:29;10.25;;;3.47;;
67798;SDS011;54596;43.216;27.904;2023-06-19T09:58:56;7.63;;;3.60;;
67798;SDS011;54596;43.216;27.904;2023-06-19T10:01:25;9.50;;;3.15;;
67798;SDS011;54596;43.216;27.904;2023-06-19T10:04:01;10.38;;;3.08;;
67798;SDS011;54596;43.216;27.904;2023-06-19T10:06:31;10.90;;;3.40;;
67798;SDS011;54596;43.216;27.904;2023-06-19T10:09:05;9.48;;;4.00;;
67798;SDS011;54596;43.216;27.904;2023-06-19T10:11:48;9.55;;;3.28;;
67798;SDS011;54596;43.216;27.904;2023-06-19T10:14:21;6.40;;;3.05;;
67798;SDS011;54596;43.216;27.904;2023-06-19T10:16:47;6.57;;;2.80;;
67798;SDS011;54596;43.216;27.904;2023-06-19T10:19:14;11.15;;;3.10;;
67798;SDS011;54596;43.216;27.904;2023-06-19T10:21:47;8.43;;;3.25;;
67798;SDS011;54596;43.216;27.904;2023-06-19T10:24:15;9.43;;;4.00;;
67798;SDS011;54596;43.216;27.904;2023-06-19T10:26:55;9.70;;;3.83;;
67798;SDS011;54596;43.216;27.904;2023-06-19T10:29:25;9.95;;;3.25;;
67798;SDS011;54596;43.216;27.904;2023-06-19T10:31:53;6.40;;;3.15;;
67798;SDS011;54596;43.216;27.904;2023-06-19T10:34:19;6.72;;;3.22;;
67798;SDS011;54596;43.216;27.904;2023-06-19T10:36:44;10.35;;;3.00;;
67798;SDS011;54596;43.216;27.904;2023-06-19T10:39:10;7.55;;;3.03;;
67798;SDS011;54596;43.216;27.904;2023-06-19T10:41:39;6.93;;;2.75;;
67798;SDS011;54596;43.216;27.904;2023-06-19T10:44:06;10.73;;;2.90;;
67798;SDS011;54596;43.216;27.904;2023-06-19T10:46:38;8.35;;;2.90;;
67798;SDS011;54596;43.216;27.904;2023-06-19T10:49:06;11.30;;;3.13;;
67798;SDS011;54596;43.216;27.904;2023-06-19T10:51:35;244.45;;;21.23;;
67798;SDS011;54596;43.216;27.904;2023-06-19T10:54:02;6.70;;;2.80;;
67798;SDS011;54596;43.216;27.904;2023-06-19T10:56:28;6.53;;;2.70;;
67798;SDS011;54596;43.216;27.904;2023-06-19T10:59:01;16.48;;;3.33;;
67798;SDS011;54596;43.216;27.904;2023-06-19T11:01:34;17.92;;;4.72;;
67798;SDS011;54596;43.216;27.904;2023-06-19T11:04:05;8.93;;;3.15;;
67798;SDS011;54596;43.216;27.904;2023-06-19T11:06:31;8.05;;;2.90;;
67798;SDS011;54596;43.216;27.904;2023-06-19T11:08:57;6.18;;;2.63;;
67798;SDS011;54596;43.216;27.904;2023-06-19T11:11:34;6.15;;;2.70;;
67798;SDS011;54596;43.216;27.904;2023-06-19T11:14:17;7.57;;;3.00;;
67798;SDS011;54596;43.216;27.904;2023-06-19T11:16:44;6.82;;;2.95;;
67798;SDS011;54596;43.216;27.904;2023-06-19T11:19:17;14.15;;;3.17;;
67798;SDS011;54596;43.216;27.904;2023-06-19T11:21:45;7.78;;;3.63;;
67798;SDS011;54596;43.216;27.904;2023-06-19T11:24:14;6.28;;;2.90;;
67798;SDS011;54596;43.216;27.904;2023-06-19T11:26:49;7.18;;;3.00;;
67798;SDS011;54596;43.216;27.904;2023-06-19T11:31:48;7.18;;;3.10;;
67798;SDS011;54596;43.216;27.904;2023-06-19T11:34:15;8.25;;;3.83;;
67798;SDS011;54596;43.216;27.904;2023-06-19T11:36:42;9.25;;;4.00;;
67798;SDS011;54596;43.216;27.904;2023-06-19T11:39:11;7.13;;;3.28;;
67798;SDS011;54596;43.216;27.904;2023-06-19T11:41:38;7.43;;;2.90;;
67798;SDS011;54596;43.216;27.904;2023-06-19T11:44:06;6.40;;;2.85;;
67798;SDS011;54596;43.216;27.904;2023-06-19T11:46:33;8.18;;;3.10;;
67798;SDS011;54596;43.216;27.904;2023-06-19T11:49:12;7.20;;;2.95;;
67798;SDS011;54596;43.216;27.904;2023-06-19T11:51:43;6.30;;;3.20;;
67798;SDS011;54596;43.216;27.904;2023-06-19T11:54:09;7.05;;;3.00;;
67798;SDS011;54596;43.216;27.904;2023-06-19T11:56:36;7.13;;;3.35;;
67798;SDS011;54596;43.216;27.904;2023-06-19T11:59:03;6.90;;;2.80;;
67798;SDS011;54596;43.216;27.904;2023-06-19T12:01:29;8.73;;;3.20;;
67798;SDS011;54596;43.216;27.904;2023-06-19T12:03:56;7.25;;;3.00;;
67798;SDS011;54596;43.216;27.904;2023-06-19T12:06:21;8.40;;;3.30;;
67798;SDS011;54596;43.216;27.904;2023-06-19T12:08:47;9.73;;;3.50;;
67798;SDS011;54596;43.216;27.904;2023-06-19T12:11:12;8.63;;;3.63;;
67798;SDS011;54596;43.216;27.904;2023-06-19T12:13:39;8.30;;;3.58;;
67798;SDS011;54596;43.216;27.904;2023-06-19T12:16:06;7.28;;;3.38;;
67798;SDS011;54596;43.216;27.904;2023-06-19T12:18:33;7.68;;;3.10;;
67798;SDS011;54596;43.216;27.904;2023-06-19T12:20:58;8.82;;;3.38;;
67798;SDS011;54596;43.216;27.904;2023-06-19T12:23:24;9.05;;;3.25;;
67798;SDS011;54596;43.216;27.904;2023-06-19T12:25:49;7.63;;;3.30;;
67798;SDS011;54596;43.216;27.904;2023-06-19T12:28:15;8.02;;;3.38;;
67798;SDS011;54596;43.216;27.904;2023-06-19T12:30:43;9.30;;;3.40;;
67798;SDS011;54596;43.216;27.904;2023-06-19T12:33:09;7.30;;;2.90;;
67798;SDS011;54596;43.216;27.904;2023-06-19T12:35:37;10.93;;;3.10;;
67798;SDS011;54596;43.216;27.904;2023-06-19T12:38:04;15.43;;;10.85;;
67798;SDS011;54596;43.216;27.904;2023-06-19T12:40:30;8.18;;;3.40;;
67798;SDS011;54596;43.216;27.904;2023-06-19T12:42:55;6.97;;;2.90;;
67798;SDS011;54596;43.216;27.904;2023-06-19T12:45:21;8.55;;;3.67;;
67798;SDS011;54596;43.216;27.904;2023-06-19T12:47:46;6.53;;;3.20;;
67798;SDS011;54596;43.216;27.904;2023-06-19T12:50:12;8.55;;;3.22;;
67798;SDS011;54596;43.216;27.904;2023-06-19T12:52:37;6.80;;;3.25;;
67798;SDS011;54596;43.216;27.904;2023-06-19T12:55:03;8.07;;;3.40;;
67798;SDS011;54596;43.216;27.904;2023-06-19T12:57:29;6.28;;;2.80;;
67798;SDS011;54596;43.216;27.904;2023-06-19T12:59:54;6.60;;;2.90;;
67798;SDS011;54596;43.216;27.904;2023-06-19T13:02:19;6.30;;;2.97;;
67798;SDS011;54596;43.216;27.904;2023-06-19T13:04:45;8.20;;;3.05;;
67798;SDS011;54596;43.216;27.904;2023-06-19T13:07:10;7.75;;;3.10;;
67798;SDS011;54596;43.216;27.904;2023-06-19T13:09:37;8.60;;;3.47;;
67798;SDS011;54596;43.216;27.904;2023-06-19T13:12:03;12.10;;;6.18;;
67798;SDS011;54596;43.216;27.904;2023-06-19T13:14:29;7.75;;;3.22;;
67798;SDS011;54596;43.216;27.904;2023-06-19T13:16:56;7.78;;;3.22;;
67798;SDS011;54596;43.216;27.904;2023-06-19T13:19:22;10.65;;;2.92;;
67798;SDS011;54596;43.216;27.904;2023-06-19T13:21:48;6.07;;;3.25;;
67798;SDS011;54596;43.216;27.904;2023-06-19T13:24:14;7.07;;;3.20;;
67798;SDS011;54596;43.216;27.904;2023-06-19T13:26:39;8.88;;;3.50;;
67798;SDS011;54596;43.216;27.904;2023-06-19T13:29:05;6.68;;;3.20;;
67798;SDS011;54596;43.216;27.904;2023-06-19T13:31:30;7.20;;;3.10;;
67798;SDS011;54596;43.216;27.904;2023-06-19T13:33:56;6.13;;;3.10;;
67798;SDS011;54596;43.216;27.904;2023-06-19T13:36:22;8.27;;;3.63;;
67798;SDS011;54596;43.216;27.904;2023-06-19T13:38:48;7.90;;;3.53;;
67798;SDS011;54596;43.216;27.904;2023-06-19T13:41:14;8.95;;;3.40;;
67798;SDS011;54596;43.216;27.904;2023-06-19T13:43:40;7.40;;;3.33;;
67798;SDS011;54596;43.216;27.904;2023-06-19T13:46:06;7.85;;;3.30;;
67798;SDS011;54596;43.216;27.904;2023-06-19T13:48:32;9.30;;;3.45;;
67798;SDS011;54596;43.216;27.904;2023-06-19T13:50:58;9.05;;;3.70;;
67798;SDS011;54596;43.216;27.904;2023-06-19T13:53:25;9.95;;;3.50;;
67798;SDS011;54596;43.216;27.904;2023-06-19T13:55:53;10.27;;;3.70;;
67798;SDS011;54596;43.216;27.904;2023-06-19T13:58:19;12.05;;;3.83;;
67798;SDS011;54596;43.216;27.904;2023-06-19T14:00:44;11.85;;;5.30;;
67798;SDS011;54596;43.216;27.904;2023-06-19T14:03:10;7.88;;;3.88;;
67798;SDS011;54596;43.216;27.904;2023-06-19T14:05:35;8.48;;;3.47;;
67798;SDS011;54596;43.216;27.904;2023-06-19T14:08:02;9.18;;;3.70;;
67798;SDS011;54596;43.216;27.904;2023-06-19T14:10:28;9.85;;;3.78;;
67798;SDS011;54596;43.216;27.904;2023-06-19T14:12:54;15.57;;;4.30;;
67798;SDS011;54596;43.216;27.904;2023-06-19T14:15:20;14.20;;;4.30;;
67798;SDS011;54596;43.216;27.904;2023-06-19T14:17:45;12.73;;;4.25;;
67798;SDS011;54596;43.216;27.904;2023-06-19T14:20:11;13.55;;;3.90;;
67798;SDS011;54596;43.216;27.904;2023-06-19T14:22:36;9.55;;;3.90;;
67798;SDS011;54596;43.216;27.904;2023-06-19T14:25:02;11.95;;;3.95;;
67798;SDS011;54596;43.216;27.904;2023-06-19T14:27:28;19.63;;;8.45;;